ADDS METAR Data INFO
IDs: Format: Raw Decoded Include TAF

Data at: 0837 UTC 27 Jun 2017

KBKS 270815Z AUTO 00000KT 10SM CLR 25/23 A2995 RMK AO1 T02470232
KBKS 270755Z AUTO 35003KT 10SM CLR 25/23 A2996 RMK AO1 T02490233
KBKS 270735Z AUTO 00000KT 10SM CLR 25/24 A2996 RMK AO1 T02520235
KBKS 270715Z AUTO 00000KT 10SM CLR 25/24 A2996 RMK AO1 T02530235
KBKS 270655Z AUTO 00000KT 10SM CLR 25/24 A2997 RMK AO1 T02540235
KBKS 270635Z AUTO 00000KT 10SM SCT120 26/24 A2998 RMK AO1 T02570235
KBKS 270615Z AUTO 00000KT 10SM CLR 26/23 A2998 RMK AO1 T02560234
KBKS 270555Z AUTO 00000KT 10SM CLR 26/24 A2997 RMK AO1 T02560235 10296 20253 403430235
KBKS 270535Z AUTO 00000KT 10SM CLR 26/24 A2997 RMK AO1 T02550235
KBKS 270515Z AUTO 00000KT 10SM SCT120 26/24 A2996 RMK AO1 T02550235
KBKS 270455Z AUTO 05003KT 10SM CLR 26/24 A2996 RMK AO1 T02560235
KBKS 270435Z AUTO 00000KT 10SM CLR 26/23 A2996 RMK AO1 T02580233
KBKS 270415Z AUTO 00000KT 10SM CLR 26/23 A2995 RMK AO1 T02600232
KBKS 270355Z AUTO 11004KT 10SM CLR 27/23 A2995 RMK AO1 T02650233
KBKS 270335Z AUTO 10005KT 10SM SCT120 27/23 A2996 RMK AO1 T02680233
KBKS 270315Z AUTO 09004KT 10SM SCT120 27/23 A2996 RMK AO1 T02710233
KBKS 270255Z AUTO 09005KT 10SM SCT120 27/23 A2996 RMK AO1 T02730232
KBKS 270235Z AUTO 08006KT 10SM CLR 28/23 A2995 RMK AO1 T02750232
KBKS 270215Z AUTO 10005KT 10SM CLR 28/23 A2995 RMK AO1 T02770230
KBKS 270155Z AUTO 10005KT 10SM CLR 28/23 A2995 RMK AO1 T02800229
KBKS 270135Z AUTO 10004KT 10SM SCT043 SCT049 SCT055 28/23 A2996 RMK AO1 T02820230
KBKS 270115Z AUTO 07003KT 10SM CLR 29/23 A2996 RMK AO1 T02860225
KBKS 270055Z AUTO 08005KT 10SM CLR 29/22 A2995 RMK AO1 T02880221
KBKS 270035Z AUTO 09006KT 10SM CLR 29/21 A2995 RMK AO1 T02900212
KBKS 270015Z AUTO 10008KT 10SM CLR 29/21 A2994 RMK AO1 T02930210
KBKS 262355Z AUTO 09009G16KT 10SM CLR 30/21 A2993 RMK AO1 T02970210 10343 20297
KBKS 262335Z AUTO 10009KT 10SM SCT033 SCT060 SCT080 30/22 A2994 RMK AO1 T03000220
KBKS 262315Z AUTO 11010KT 10SM SCT035 SCT047 BKN060 30/22 A2994 RMK AO1 T03020222
KBKS 262255Z AUTO 09010G15KT 10SM SCT060 SCT080 31/22 A2993 RMK AO1 T03070218
KBKS 262235Z AUTO 09010KT 10SM SCT060 32/22 A2994 RMK AO1 T03150217
KBKS 262215Z AUTO 09010KT 10SM CLR 31/22 A2994 RMK AO1 T03140221
KBKS 262155Z AUTO 09009G16KT 10SM CLR 31/22 A2994 RMK AO1 T03140217
KBKS 262135Z AUTO 07015G18KT 10SM CLR 33/22 A2994 RMK AO1 T03250219
KBKS 262115Z AUTO 06014G19KT 10SM SCT100 33/21 A2995 RMK AO1 T03270207
KBKS 262055Z AUTO 06012G16KT 10SM CLR 34/21 A2995 RMK AO1 T03400213
KBKS 262035Z AUTO 10006KT 10SM CLR 33/21 A2996 RMK AO1 T03280208
KBKS 262015Z AUTO 08007KT 10SM CLR 32/21 A2996 RMK AO1 T03190210
KBKS 261955Z AUTO 06006KT 10SM SCT044 31/22 A2996 RMK AO1 T03120215
KBKS 261935Z AUTO 08008KT 10SM CLR 31/21 A2997 RMK AO1 T03130211
KBKS 261915Z AUTO 08011G16KT 10SM SCT060 SCT080 SCT110 32/22 A2998 RMK AO1 T03240218
KBKS 261855Z AUTO 08012KT 10SM SCT044 SCT060 BKN070 31/22 A2998 RMK AO1 T03060220
KBKS 261835Z AUTO 06008KT 010V080 10SM BKN044 BKN050 33/21 A3000 RMK AO1 T03270208
KBKS 261815Z AUTO 02005KT 10SM BKN044 BKN075 33/21 A3001 RMK AO1 T03250208
KBKS 261755Z AUTO 11005KT 10SM SCT040 BKN047 BKN080 32/21 A3001 RMK AO1 T03220212 10324 20238
KBKS 261735Z AUTO 06005KT 10SM SCT036 BKN047 BKN075 31/21 A3002 RMK AO1 T03120211
KBKS 261715Z AUTO 11005KT 10SM BKN034 BKN040 BKN090 32/22 A3003 RMK AO1 T03150219
KBKS 261655Z AUTO 08006KT 10SM BKN032 BKN042 OVC048 31/22 A3004 RMK AO1 T03120222
KBKS 261635Z AUTO 04005KT 10SM BKN030 BKN044 BKN070 30/23 A3004 RMK AO1 T03000225
KBKS 261615Z AUTO 03006KT 10SM SCT027 BKN032 BKN041 30/23 A3004 RMK AO1 T03000225
KBKS 261555Z AUTO 04004KT 10SM BKN028 BKN036 OVC050 30/23 A3005 RMK AO1 T02970232
KBKS 261535Z AUTO 07005KT 10SM SCT019 SCT029 BKN049 29/23 A3005 RMK AO1 T02900232
KBKS 261515Z AUTO 02005KT 10SM SCT019 SCT030 SCT040 29/24 A3005 RMK AO1 T02930237
KBKS 261455Z AUTO 06006KT 10SM SCT017 SCT030 29/24 A3006 RMK AO1 T02940238
KBKS 261435Z AUTO 05006KT 10SM SCT015 SCT030 29/24 A3006 RMK AO1 T02920237
KBKS 261415Z AUTO 06004KT 10SM CLR 28/24 A3006 RMK AO1 T02820244
KBKS 261355Z AUTO 03004KT 10SM CLR 27/24 A3007 RMK AO1 T02720243
KBKS 261335Z AUTO 01004KT 10SM CLR 27/24 A3006 RMK AO1 T02650241
KBKS 261315Z AUTO 03004KT 10SM CLR 26/24 A3005 RMK AO1 T02580242
KBKS 261255Z AUTO 01004KT 10SM CLR 25/24 A3005 RMK AO1 T02500240
KBKS 261235Z AUTO 36004KT 10SM CLR 24/24 A3004 RMK AO1 T02440236
KBKS 261215Z AUTO 36003KT 10SM CLR 24/23 A3004 RMK AO1 T02390232
KBKS 261155Z AUTO 00000KT 10SM CLR 24/23 A3004 RMK AO1 70001 T02390231 10249 20235
KBKS 261135Z AUTO 36003KT 10SM CLR 24/23 A3004 RMK AO1 T02370231
KBKS 261115Z AUTO 01004KT 10SM CLR 24/23 A3003 RMK AO1 T02360230
KBKS 261055Z AUTO 35003KT 10SM CLR 24/23 A3003 RMK AO1 T02360230
KBKS 261035Z AUTO 00000KT 10SM CLR 24/23 A3003 RMK AO1 T02370230
KBKS 261015Z AUTO 00000KT 10SM CLR 24/23 A3003 RMK AO1 T02380230
KBKS 260955Z AUTO 00000KT 10SM CLR 24/23 A3003 RMK AO1 T02400232
KBKS 260935Z AUTO 00000KT 10SM CLR 24/23 A3003 RMK AO1 T02400233
KBKS 260915Z AUTO 01004KT 10SM CLR 24/23 A3003 RMK AO1 T02410233
KBKS 260855Z AUTO 00000KT 10SM SCT019 24/24 A3003 RMK AO1 T02420235
KBKS 260835Z AUTO 00000KT 10SM CLR 25/24 A3003 RMK AO1 T02450235
KBKS 260815Z AUTO 05003KT 10SM CLR 25/24 A3003 RMK AO1 T02450236
KBKS 260755Z AUTO 05003KT 10SM CLR 24/23 A3003 RMK AO1 T02430234
KBKS 260735Z AUTO 00000KT 10SM SCT017 SCT028 25/24 A3003 RMK AO1 T02450235
KBKS 260715Z AUTO 00000KT 10SM CLR 25/24 A3004 RMK AO1 T02450235
KBKS 260655Z AUTO 00000KT 10SM CLR 25/24 A3004 RMK AO1 T02460236
KBKS 260635Z AUTO 00000KT 10SM CLR 25/24 A3004 RMK AO1 T02470235
KBKS 260615Z AUTO 00000KT 10SM CLR 25/24 A3005 RMK AO1 T02480236
KBKS 260555Z AUTO 00000KT 10SM CLR 25/24 A3005 RMK AO1 T02500237 10289 20250 403280242
KBKS 260535Z AUTO 00000KT 10SM CLR 25/24 A3006 RMK AO1 T02500238
KBKS 260515Z AUTO 00000KT 10SM CLR 25/24 A3006 RMK AO1 T02530238
KBKS 260455Z AUTO 11004KT 10SM CLR 26/24 A3005 RMK AO1 T02550238
KBKS 260435Z AUTO 12005KT 10SM CLR 26/24 A3006 RMK AO1 T02570239
KBKS 260415Z AUTO 10004KT 10SM CLR 26/24 A3006 RMK AO1 T02600240
KBKS 260355Z AUTO 10004KT 10SM CLR 26/24 A3005 RMK AO1 T02600240
KBKS 260335Z AUTO 11003KT 10SM CLR 26/24 A3005 RMK AO1 T02620240
KBKS 260315Z AUTO 10004KT 10SM CLR 26/24 A3004 RMK AO1 T02630240
KBKS 260255Z AUTO 11003KT 10SM CLR 27/24 A3004 RMK AO1 T02650240
KBKS 260235Z AUTO 11003KT 10SM CLR 27/24 A3004 RMK AO1 T02700240
KBKS 260215Z AUTO 12005KT 10SM SCT070 27/24 A3004 RMK AO1 T02720240
KBKS 260155Z AUTO 11005KT 10SM CLR 28/24 A3005 RMK AO1 T02760239
KBKS 260135Z AUTO 11005KT 10SM CLR 28/24 A3004 RMK AO1 T02800236
KBKS 260115Z AUTO 10006KT 10SM CLR 29/23 A3004 RMK AO1 T02850231
KBKS 260055Z AUTO 10006KT 10SM SCT046 SCT050 29/23 A3004 RMK AO1 T02890233
KBKS 260035Z AUTO 11005KT 10SM SCT037 SCT046 BKN060 29/24 A3003 RMK AO1 T02850237
KBKS 260015Z AUTO 11007KT 10SM SCT045 BKN055 BKN080 29/24 A3003 RMK AO1 T02850235
KBKS 252355Z AUTO 10006KT 10SM SCT049 SCT060 SCT070 29/23 A3003 RMK AO1 60001 T02870231 10328 20270
KBKS 252335Z AUTO 10008KT 10SM CLR 29/23 A3002 RMK AO1 T02920225
KBKS 252315Z AUTO 09007KT 10SM CLR 30/22 A3003 RMK AO1 T02950219
KBKS 252255Z AUTO 12009KT 10SM CLR 31/21 A3003 RMK AO1 T03050213
KBKS 252235Z AUTO 11007KT 10SM CLR 31/20 A3004 RMK AO1 T03130202
KBKS 252215Z AUTO 08012G21KT 10SM SCT046 29/21 A3003 RMK AO1 T02880206
KBKS 252155Z AUTO 08018G26KT 10SM SCT046 32/23 A3004 RMK AO1 T03180228
KBKS 252135Z AUTO 05013KT 10SM SCT038 32/22 A3002 RMK AO1 T03230220
KBKS 252115Z AUTO 06006KT 10SM SCT038 SCT045 32/23 A3002 RMK AO1 T03220233
KBKS 252055Z AUTO 00000KT 10SM CLR 32/23 A3003 RMK AO1 60001 T03200226


Page loaded:  08:37 UTC  |   01:37 AM Pacific  |   02:37 AM Mountain  |   03:37 AM Central  |   04:37 AM Eastern

 

ADVISORIES

FORECASTS

FORECASTS

OBSERVATIONS

USER TOOLS

ABOUT US